createdAt,value
2018-07-25T00:00:18.848Z,994.6
2018-07-25T00:01:28.923Z,994.6
2018-07-25T00:02:38.999Z,994.6
2018-07-25T00:03:48.826Z,994.58
2018-07-25T00:04:58.912Z,994.61
2018-07-25T00:06:09.225Z,994.6
2018-07-25T00:07:19.304Z,994.6
2018-07-25T00:08:29.403Z,994.57
2018-07-25T00:09:39.215Z,994.58
2018-07-25T00:10:49.031Z,994.6
2018-07-25T00:11:59.320Z,994.59
2018-07-25T00:13:09.142Z,994.6
2018-07-25T00:14:18.695Z,994.61
2018-07-25T00:15:28.782Z,994.6
2018-07-25T00:16:38.873Z,994.59
2018-07-25T00:17:48.705Z,994.57
2018-07-25T00:18:58.543Z,994.56
2018-07-25T00:20:08.355Z,994.53
2018-07-25T00:21:18.692Z,994.55
2018-07-25T00:22:28.996Z,994.55
2018-07-25T00:23:39.077Z,994.57
2018-07-25T00:24:49.142Z,994.56
2018-07-25T00:25:59.228Z,994.59
2018-07-25T00:27:09.306Z,994.59
2018-07-25T00:28:19.397Z,994.6
2018-07-25T00:29:29.474Z,994.58
2018-07-25T00:30:39.599Z,994.57
2018-07-25T00:31:49.693Z,994.57
2018-07-25T00:32:59.527Z,994.59
2018-07-25T00:34:09.614Z,994.59
2018-07-25T00:35:19.701Z,994.58
2018-07-25T00:36:29.775Z,994.58
2018-07-25T00:37:39.330Z,994.6
2018-07-25T00:38:49.406Z,994.6
2018-07-25T00:39:59.720Z,994.61
2018-07-25T00:41:09.812Z,994.63
2018-07-25T00:42:19.881Z,994.62
2018-07-25T00:43:29.967Z,994.61
2018-07-25T00:44:39.775Z,994.62
2018-07-25T00:45:49.571Z,994.59
2018-07-25T00:46:59.644Z,994.61
2018-07-25T00:48:09.744Z,994.63
2018-07-25T00:49:19.811Z,994.6
2018-07-25T00:50:29.895Z,994.6
2018-07-25T00:51:39.965Z,994.61
2018-07-25T00:52:49.772Z,994.6
2018-07-25T00:53:59.591Z,994.55
2018-07-25T00:55:09.672Z,994.59
2018-07-25T00:56:19.487Z,994.58
2018-07-25T00:57:29.311Z,994.59
2018-07-25T00:58:39.368Z,994.57
2018-07-25T00:59:49.448Z,994.61
2018-07-25T01:00:59.537Z,994.61
2018-07-25T01:02:09.362Z,994.62
2018-07-25T01:03:19.451Z,994.64
2018-07-25T01:04:29.275Z,994.61
2018-07-25T01:05:39.362Z,994.64
2018-07-25T01:06:49.440Z,994.6
2018-07-25T01:07:59.522Z,994.63
2018-07-25T01:09:09.355Z,994.63
2018-07-25T01:10:19.453Z,994.64
2018-07-25T01:11:29.536Z,994.62
2018-07-25T01:12:39.614Z,994.59
2018-07-25T01:13:49.681Z,994.62
2018-07-25T01:14:59.812Z,994.61
2018-07-25T01:16:09.896Z,994.6
2018-07-25T01:17:19.991Z,994.62
2018-07-25T01:18:30.068Z,994.61
2018-07-25T01:19:40.134Z,994.63
2018-07-25T01:20:49.695Z,994.62
2018-07-25T01:21:59.512Z,994.6
2018-07-25T01:23:09.605Z,994.63
2018-07-25T01:24:19.690Z,994.63
2018-07-25T01:25:29.523Z,994.65
2018-07-25T01:26:39.582Z,994.67
2018-07-25T01:27:49.679Z,994.66
2018-07-25T01:28:59.761Z,994.7
2018-07-25T01:30:09.838Z,994.67
2018-07-25T01:31:19.909Z,994.64
2018-07-25T01:32:29.717Z,994.67
2018-07-25T01:33:39.799Z,994.66
2018-07-25T01:34:49.341Z,994.7
2018-07-25T01:35:59.407Z,994.68
2018-07-25T01:37:09.501Z,994.71
2018-07-25T01:38:19.370Z,994.68
2018-07-25T01:39:29.449Z,994.67
2018-07-25T01:40:39.525Z,994.68
2018-07-25T01:41:49.602Z,994.66
2018-07-25T01:42:59.441Z,994.69
2018-07-25T01:44:09.537Z,994.7
2018-07-25T01:45:19.600Z,994.71
2018-07-25T01:46:29.715Z,994.68
2018-07-25T01:47:39.790Z,994.69
2018-07-25T01:48:49.867Z,994.68
2018-07-25T01:49:59.454Z,994.68
2018-07-25T01:51:09.531Z,994.71
2018-07-25T01:52:19.616Z,994.7
2018-07-25T01:53:29.429Z,994.67
2018-07-25T01:54:39.515Z,994.68
2018-07-25T01:55:49.643Z,994.67
2018-07-25T01:56:59.190Z,994.68
2018-07-25T01:58:09.279Z,994.7
2018-07-25T01:59:19.091Z,994.71
2018-07-25T02:00:29.153Z,994.7
2018-07-25T02:01:39.280Z,994.71
2018-07-25T02:02:49.091Z,994.69
2018-07-25T02:03:59.208Z,994.66
2018-07-25T02:05:09.314Z,994.68
2018-07-25T02:06:19.400Z,994.68
2018-07-25T02:07:29.266Z,994.67
2018-07-25T02:08:39.330Z,994.65
2018-07-25T02:09:49.636Z,994.67
2018-07-25T02:10:59.459Z,994.69
2018-07-25T02:12:09.577Z,994.74
2018-07-25T02:13:19.657Z,994.71
2018-07-25T02:14:29.473Z,994.69
2018-07-25T02:15:39.576Z,994.7
2018-07-25T02:16:49.647Z,994.74
2018-07-25T02:17:59.752Z,994.71
2018-07-25T02:19:09.867Z,994.72
2018-07-25T02:20:19.673Z,994.69
2018-07-25T02:21:29.748Z,994.7
2018-07-25T02:22:39.564Z,994.68
2018-07-25T02:23:49.658Z,994.72
2018-07-25T02:24:59.744Z,994.72
2018-07-25T02:26:09.813Z,994.71
2018-07-25T02:27:19.890Z,994.7
2018-07-25T02:28:29.965Z,994.74
2018-07-25T02:29:40.041Z,994.71
2018-07-25T02:30:50.169Z,994.74
2018-07-25T02:32:00.256Z,994.72
2018-07-25T02:33:09.805Z,994.74
2018-07-25T02:34:19.894Z,994.75
2018-07-25T02:35:30.033Z,994.74
2018-07-25T02:36:40.125Z,994.75
2018-07-25T02:37:50.204Z,994.72
2018-07-25T02:39:00.052Z,994.78
2018-07-25T02:40:09.874Z,994.75
2018-07-25T02:41:19.970Z,994.79
2018-07-25T02:42:30.183Z,994.76
2018-07-25T02:43:40.693Z,994.76
2018-07-25T02:44:51.254Z,994.73
2018-07-25T02:46:01.317Z,994.73
2018-07-25T02:47:11.129Z,994.73
2018-07-25T02:48:21.225Z,994.74
2018-07-25T02:49:31.317Z,994.78
2018-07-25T02:50:41.381Z,994.75
2018-07-25T02:51:51.477Z,994.75
2018-07-25T02:53:01.302Z,994.76
2018-07-25T02:54:11.383Z,994.76
2018-07-25T02:55:21.477Z,994.8
2018-07-25T02:56:31.577Z,994.75
2018-07-25T02:57:41.690Z,994.8
2018-07-25T02:58:51.767Z,994.79
2018-07-25T03:00:01.639Z,994.77
2018-07-25T03:01:11.728Z,994.78
2018-07-25T03:02:21.784Z,994.78
2018-07-25T03:34:57.415Z,995.01
2018-07-25T03:36:07.504Z,995.01
2018-07-25T03:37:17.575Z,995.01
2018-07-25T03:38:27.877Z,995.01
2018-07-25T03:39:37.443Z,995.03
2018-07-25T03:40:47.056Z,995.02
2018-07-25T03:41:57.131Z,995.03
2018-07-25T03:43:06.943Z,995.03
2018-07-25T03:44:17.014Z,995.05
2018-07-25T03:45:27.076Z,995.04
2018-07-25T03:46:36.655Z,995.07
2018-07-25T03:47:46.739Z,995.09
2018-07-25T03:48:56.547Z,995.16
2018-07-25T03:50:06.625Z,995.15
2018-07-25T03:51:16.695Z,995.18
2018-07-25T03:52:26.245Z,995.17
2018-07-25T03:53:36.319Z,995.17
2018-07-25T03:54:45.878Z,995.16
2018-07-25T03:55:55.961Z,995.12
2018-07-25T03:57:06.066Z,995.18
2018-07-25T03:58:16.193Z,995.18
2018-07-25T03:59:26.271Z,995.19
2018-07-25T04:00:36.090Z,995.15
2018-07-25T04:01:46.171Z,995.13
2018-07-25T04:02:56.049Z,995.13
2018-07-25T04:04:06.134Z,995.15
2018-07-25T04:05:16.206Z,995.17
2018-07-25T04:06:26.289Z,995.19
2018-07-25T04:07:36.393Z,995.2
2018-07-25T04:08:46.471Z,995.21
2018-07-25T04:09:56.597Z,995.22
2018-07-25T04:11:06.420Z,995.19
2018-07-25T04:12:16.523Z,995.23
2018-07-25T04:13:26.171Z,995.2
2018-07-25T04:14:35.726Z,995.21
2018-07-25T04:15:45.866Z,995.19
2018-07-25T04:16:55.937Z,995.24
2018-07-25T04:18:05.760Z,995.24
2018-07-25T04:19:15.831Z,995.26
2018-07-25T04:20:25.937Z,995.2
2018-07-25T04:21:36.031Z,995.22
2018-07-25T04:22:46.156Z,995.26
2018-07-25T04:23:56.236Z,995.25
2018-07-25T04:25:06.318Z,995.22
2018-07-25T04:26:16.409Z,995.32
2018-07-25T04:27:26.598Z,995.54
2018-07-25T04:28:38.759Z,995.71
2018-07-25T04:29:51.780Z,995.74
2018-07-25T04:31:04.746Z,995.72
2018-07-25T04:32:14.827Z,995.69
2018-07-25T04:33:24.632Z,995.63
2018-07-25T04:34:34.698Z,995.64
2018-07-25T04:35:45.164Z,995.67
2018-07-25T04:36:55.244Z,995.72
2018-07-25T04:38:05.325Z,995.74
2018-07-25T04:39:15.443Z,995.73
2018-07-25T04:40:25.521Z,995.73
2018-07-25T04:41:35.595Z,995.76
2018-07-25T04:42:45.767Z,995.71
2018-07-25T04:43:55.707Z,995.76
2018-07-25T04:45:05.944Z,995.78
2018-07-25T04:46:16.135Z,995.67
2018-07-25T04:47:26.862Z,995.83
2018-07-25T04:48:36.998Z,995.62
2018-07-25T04:49:46.829Z,995.53
2018-07-25T04:50:56.712Z,995.54
2018-07-25T04:52:06.801Z,995.57
2018-07-25T04:53:16.935Z,995.72
2018-07-25T04:54:27.036Z,995.63
2018-07-25T04:55:37.114Z,995.67
2018-07-25T04:56:46.926Z,995.88
2018-07-25T04:57:57.000Z,995.72
2018-07-25T04:59:07.088Z,995.63
2018-07-25T05:00:17.175Z,995.98
2018-07-25T05:01:27.273Z,995.76
2018-07-25T05:02:37.159Z,995.85
2018-07-25T05:03:46.965Z,996.03
2018-07-25T05:04:57.069Z,996.07
2018-07-25T05:06:07.165Z,996.02
2018-07-25T05:07:17.035Z,995.98
2018-07-25T05:08:27.108Z,995.91
2018-07-25T05:09:36.960Z,995.94
2018-07-25T05:10:47.056Z,995.98
2018-07-25T05:11:56.622Z,996.02
2018-07-25T05:13:06.448Z,996.02
2018-07-25T05:14:16.522Z,996.18
2018-07-25T05:15:26.598Z,996.68
2018-07-25T05:16:36.665Z,996.73
2018-07-25T05:17:46.786Z,996.5
2018-07-25T05:18:56.851Z,996.54
2018-07-25T05:20:06.925Z,996.39
2018-07-25T05:21:17.200Z,996.32
2018-07-25T05:22:27.286Z,996.45
2018-07-25T05:23:37.355Z,996.53
2018-07-25T05:24:47.441Z,996.51
2018-07-25T05:25:57.317Z,996.46
2018-07-25T05:27:07.395Z,996.44
2018-07-25T05:28:17.239Z,996.51
2018-07-25T05:29:27.049Z,996.5
2018-07-25T05:30:37.158Z,996.53
2018-07-25T05:31:47.243Z,996.66
2018-07-25T05:32:57.069Z,996.63
2018-07-25T05:34:07.157Z,996.38
2018-07-25T05:35:17.252Z,996.3
2018-07-25T05:36:27.070Z,996.42
2018-07-25T05:37:37.139Z,996.43
2018-07-25T05:38:47.230Z,996.32
2018-07-25T05:39:57.313Z,996.42
2018-07-25T05:41:07.401Z,996.45
2018-07-25T05:42:17.483Z,996.46
2018-07-25T05:43:27.571Z,996.46
2018-07-25T05:44:37.386Z,996.45
2018-07-25T05:45:47.208Z,996.39
2018-07-25T05:46:57.285Z,996.42
2018-07-25T05:48:07.361Z,996.43
2018-07-25T05:49:17.515Z,996.45
2018-07-25T05:50:27.810Z,996.46
2018-07-25T05:51:37.979Z,996.38
2018-07-25T05:52:48.070Z,996.33
2018-07-25T05:53:57.884Z,996.39
2018-07-25T05:55:07.712Z,996.39
2018-07-25T05:56:17.791Z,996.39
2018-07-25T05:57:27.879Z,996.39
2018-07-25T05:58:37.991Z,996.42
2018-07-25T05:59:47.959Z,996.37
2018-07-25T06:00:58.046Z,996.42
2018-07-25T06:02:08.146Z,996.34
2018-07-25T06:03:18.058Z,996.34
2018-07-25T06:04:28.702Z,996.35
2018-07-25T06:05:38.500Z,996.37
2018-07-25T06:06:48.438Z,996.33
2018-07-25T06:07:58.018Z,996.32
2018-07-25T06:09:08.113Z,996.31
2018-07-25T06:10:18.460Z,996.31
2018-07-25T06:11:28.544Z,996.35
2018-07-25T06:12:38.636Z,996.32
2018-07-25T06:13:48.607Z,996.33
2018-07-25T06:14:58.718Z,996.26
2018-07-25T06:16:08.546Z,996.14
2018-07-25T06:17:18.618Z,996.1
2018-07-25T06:18:28.719Z,996.01
2018-07-25T06:19:38.856Z,996.05
2018-07-25T06:20:48.972Z,996.01
2018-07-25T06:21:58.789Z,996.04
2018-07-25T06:23:08.868Z,996.05
2018-07-25T06:24:18.959Z,996.07
2018-07-25T06:25:29.066Z,996.12
2018-07-25T06:26:39.160Z,996.14
2018-07-25T06:27:49.237Z,996.13
2018-07-25T06:28:59.335Z,996.17
2018-07-25T06:30:09.432Z,996.14
2018-07-25T06:31:19.591Z,996.13
2018-07-25T06:32:29.812Z,996.11
2018-07-25T06:33:39.903Z,996.12
2018-07-25T06:34:50.078Z,996.14
2018-07-25T06:36:00.385Z,996.14
2018-07-25T06:37:10.486Z,996.13
2018-07-25T06:38:20.328Z,996.16
2018-07-25T06:39:30.419Z,996.17
2018-07-25T06:40:40.508Z,996.22
2018-07-25T06:41:50.584Z,996.27
2018-07-25T06:43:00.417Z,996.33
2018-07-25T06:44:10.511Z,996.31
2018-07-25T06:45:20.636Z,996.33
2018-07-25T06:46:30.457Z,996.32
2018-07-25T06:47:40.554Z,996.25
2018-07-25T06:48:50.626Z,996.27
2018-07-25T06:50:00.443Z,996.27
2018-07-25T06:51:10.247Z,996.24
2018-07-25T06:52:20.322Z,996.29
2018-07-25T06:53:30.403Z,996.27
2018-07-25T06:54:40.537Z,996.25
2018-07-25T06:55:50.619Z,996.26
2018-07-25T06:57:00.449Z,996.26
2018-07-25T06:58:10.612Z,996.3
2018-07-25T06:59:20.704Z,996.3
2018-07-25T07:00:30.260Z,996.29
2018-07-25T07:01:40.349Z,996.29
2018-07-25T07:02:50.161Z,996.29
2018-07-25T07:03:59.961Z,996.28
2018-07-25T07:05:10.067Z,996.31
2018-07-25T07:06:19.967Z,996.3
2018-07-25T07:07:29.804Z,996.22
2018-07-25T07:08:39.616Z,996.22
2018-07-25T07:09:49.686Z,996.21
2018-07-25T07:10:59.759Z,996.21
2018-07-25T07:12:09.973Z,996.21
2018-07-25T07:13:19.946Z,996.22
2018-07-25T07:14:30.013Z,996.25
2018-07-25T07:15:40.106Z,996.2
2018-07-25T07:16:50.180Z,996.21
2018-07-25T07:17:59.985Z,996.2
2018-07-25T07:19:10.304Z,996.2
2018-07-25T07:20:20.406Z,996.21
2018-07-25T07:21:30.502Z,996.2
2018-07-25T07:22:40.573Z,996.23
2018-07-25T07:23:50.217Z,996.25
2018-07-25T07:25:00.485Z,996.23
2018-07-25T07:26:10.566Z,996.27
2018-07-25T07:27:20.398Z,996.28
2018-07-25T07:28:30.475Z,996.3
2018-07-25T07:29:40.286Z,996.26
2018-07-25T07:30:50.372Z,996.3
2018-07-25T07:32:00.478Z,996.29
2018-07-25T07:33:10.343Z,996.27
2018-07-25T07:34:20.429Z,996.23
2018-07-25T07:35:30.543Z,996.26
2018-07-25T07:36:40.628Z,996.24
2018-07-25T07:37:50.836Z,996.19
2018-07-25T07:39:01.012Z,996.2
2018-07-25T07:40:10.833Z,996.17
2018-07-25T07:41:20.923Z,996.16
2018-07-25T07:42:30.735Z,996.17
2018-07-25T07:43:40.562Z,996.19
2018-07-25T07:44:50.648Z,996.19
2018-07-25T07:46:00.728Z,996.15
2018-07-25T07:47:10.809Z,996.17
2018-07-25T07:48:20.610Z,996.19
2018-07-25T07:49:30.428Z,996.16
2018-07-25T07:50:39.991Z,996.18
2018-07-25T07:51:50.078Z,996.14
2018-07-25T07:53:00.169Z,996.17
2018-07-25T07:54:10.248Z,996.16
2018-07-25T07:55:20.333Z,996.18
2018-07-25T07:56:30.434Z,996.19
2018-07-25T07:57:40.515Z,996.17
2018-07-25T07:58:50.358Z,996.11
2018-07-25T08:00:00.466Z,996.07
2018-07-25T08:01:10.292Z,996.06
2018-07-25T08:02:20.369Z,996.1
2018-07-25T08:03:30.486Z,996.12
2018-07-25T08:04:40.599Z,996.09
2018-07-25T08:05:50.699Z,996.17
2018-07-25T08:07:00.783Z,996.26
2018-07-25T08:08:10.334Z,996.18
2018-07-25T08:09:20.194Z,996.2
2018-07-25T08:10:30.103Z,996.18
2018-07-25T08:11:40.505Z,996.16
2018-07-25T08:12:50.347Z,996.13
2018-07-25T08:14:00.181Z,996.18
2018-07-25T08:15:10.309Z,996.11
2018-07-25T08:16:20.187Z,996.12
2018-07-25T08:17:30.305Z,996.12
2018-07-25T08:18:40.626Z,996.14
2018-07-25T08:19:50.462Z,996.11
2018-07-25T08:21:00.678Z,996.1
2018-07-25T08:22:10.875Z,996.1
2018-07-25T08:23:20.966Z,996.12
2018-07-25T08:24:31.084Z,996.11
2018-07-25T08:25:40.916Z,996.08
2018-07-25T08:26:50.620Z,996.03
2018-07-25T08:28:00.704Z,996.04
2018-07-25T08:29:10.845Z,996.05
2018-07-25T08:30:20.941Z,996.01
2018-07-25T08:31:31.280Z,996
2018-07-25T08:32:41.389Z,996.01
2018-07-25T08:33:51.283Z,995.99
2018-07-25T08:35:01.381Z,996.03
2018-07-25T08:36:11.229Z,996.04
2018-07-25T08:37:21.323Z,995.99
2018-07-25T08:38:31.436Z,996.06
2018-07-25T08:39:41.267Z,996.01
2018-07-25T08:40:51.380Z,995.98
2018-07-25T08:42:01.475Z,995.98
2018-07-25T08:43:11.570Z,996.03
2018-07-25T08:44:21.199Z,995.95
2018-07-25T08:45:31.285Z,995.95
2018-07-25T08:46:41.435Z,995.94
2018-07-25T08:47:51.761Z,995.94
2018-07-25T08:49:01.906Z,995.99
2018-07-25T08:50:11.991Z,995.94
2018-07-25T08:51:21.832Z,995.94
2018-07-25T08:52:31.763Z,995.97
2018-07-25T08:53:42.064Z,996
2018-07-25T08:54:51.644Z,995.97
2018-07-25T08:56:01.739Z,995.94
2018-07-25T08:57:11.836Z,995.91
2018-07-25T08:58:22.132Z,995.95
2018-07-25T08:59:32.232Z,995.97
2018-07-25T09:00:42.344Z,995.95
2018-07-25T09:01:52.511Z,995.94
2018-07-25T09:03:02.531Z,996.02
2018-07-25T09:04:12.106Z,996.01
2018-07-25T09:05:22.210Z,996.02
2018-07-25T09:06:32.199Z,995.96
2018-07-25T09:07:42.257Z,996
2018-07-25T09:08:52.505Z,995.99
2018-07-25T09:10:02.601Z,995.96
2018-07-25T09:11:12.711Z,995.97
2018-07-25T09:12:22.821Z,996
2018-07-25T09:13:32.999Z,995.98
2018-07-25T09:14:43.100Z,995.98
2018-07-25T09:15:53.222Z,995.96
2018-07-25T09:17:04.200Z,995.99
2018-07-25T09:18:14.357Z,995.92
2018-07-25T09:19:24.492Z,995.9
2018-07-25T09:20:34.597Z,995.91
2018-07-25T09:21:43.902Z,995.87
2018-07-25T09:22:53.995Z,995.91
2018-07-25T09:24:04.135Z,995.89
2018-07-25T09:25:14.260Z,995.91
2018-07-25T09:26:24.941Z,995.86
2018-07-25T09:27:35.040Z,995.9
2018-07-25T09:28:45.168Z,995.82
2018-07-25T09:29:55.359Z,995.8
2018-07-25T09:31:05.220Z,995.88
2018-07-25T09:32:15.335Z,995.82
2018-07-25T09:33:25.477Z,995.8
2018-07-25T09:34:35.340Z,995.84
2018-07-25T09:35:45.474Z,995.85
2018-07-25T09:36:55.355Z,995.77
2018-07-25T09:38:05.491Z,995.79
2018-07-25T09:39:15.617Z,995.63
2018-07-25T09:40:26.079Z,995.78
2018-07-25T09:41:36.341Z,995.74
2018-07-25T09:42:46.507Z,995.74
2018-07-25T09:43:56.681Z,995.7
2018-07-25T09:45:06.855Z,995.66
2018-07-25T09:46:17.068Z,995.65
2018-07-25T09:47:27.147Z,995.65
2018-07-25T09:48:37.351Z,995.72
2018-07-25T09:49:47.637Z,995.73
2018-07-25T09:50:57.866Z,995.65
2018-07-25T09:52:08.057Z,995.74
2018-07-25T09:53:17.925Z,995.66
2018-07-25T09:54:28.092Z,995.6
2018-07-25T09:55:38.304Z,995.59
2018-07-25T09:56:48.498Z,995.61
2018-07-25T09:57:58.413Z,995.65
2018-07-25T09:59:08.348Z,995.59
2018-07-25T10:00:18.569Z,995.66
2018-07-25T10:01:28.732Z,995.6
2018-07-25T10:02:38.947Z,995.61
2018-07-25T10:03:49.165Z,995.58
2018-07-25T10:04:59.336Z,995.59
2018-07-25T10:06:09.238Z,995.56
2018-07-25T10:07:19.574Z,995.54
2018-07-25T10:08:30.399Z,995.58
2018-07-25T10:09:41.159Z,995.64
2018-07-25T10:10:51.459Z,995.61
2018-07-25T10:12:02.722Z,995.53
2018-07-25T10:13:14.318Z,995.5
2018-07-25T10:14:26.043Z,995.52
2018-07-25T10:15:37.579Z,995.61
2018-07-25T10:16:48.642Z,995.54
2018-07-25T10:17:59.521Z,995.59
2018-07-25T10:19:09.767Z,995.58
2018-07-25T10:20:20.342Z,995.61
2018-07-25T10:21:30.497Z,995.55
2018-07-25T10:22:40.778Z,995.58
2018-07-25T10:23:50.387Z,995.52
2018-07-25T10:24:59.977Z,995.55
2018-07-25T10:26:09.608Z,995.43
2018-07-25T10:27:19.808Z,995.5
2018-07-25T10:28:30.119Z,995.39
2018-07-25T10:29:39.803Z,995.36
2018-07-25T10:30:49.974Z,995.39
2018-07-25T10:31:59.898Z,995.4
2018-07-25T10:33:09.878Z,995.37
2018-07-25T10:34:20.122Z,995.48
2018-07-25T10:35:30.067Z,995.44
2018-07-25T10:36:40.321Z,995.39
2018-07-25T10:37:50.223Z,995.44
2018-07-25T10:39:00.456Z,995.43
2018-07-25T10:40:11.105Z,995.37
2018-07-25T10:41:20.970Z,995.4
2018-07-25T10:42:31.132Z,995.38
2018-07-25T10:43:41.861Z,995.38
2018-07-25T10:44:52.005Z,995.4
2018-07-25T10:46:01.595Z,995.29
2018-07-25T10:47:11.743Z,995.28
2018-07-25T10:48:21.906Z,995.27
2018-07-25T10:49:31.754Z,995.24
2018-07-25T10:50:41.930Z,995.21
2018-07-25T10:51:52.010Z,995.23
2018-07-25T10:53:02.198Z,995.21
2018-07-25T10:54:12.318Z,995.11
2018-07-25T10:55:22.493Z,995.17
2018-07-25T10:56:32.069Z,995.19
2018-07-25T10:57:41.922Z,995.22
2018-07-25T10:58:52.061Z,995.24
2018-07-25T11:00:02.219Z,995.12
2018-07-25T11:01:12.345Z,995.14
2018-07-25T11:02:22.540Z,995.2
2018-07-25T11:03:32.706Z,995.18
2018-07-25T11:04:42.925Z,995.2
2018-07-25T11:05:52.844Z,995.23
2018-07-25T11:07:03.057Z,995.17
2018-07-25T11:08:12.980Z,995.12
2018-07-25T11:09:23.134Z,995.17
2018-07-25T11:10:33.392Z,995.22
2018-07-25T11:11:43.493Z,995.23
2018-07-25T11:12:53.587Z,995.13
2018-07-25T11:14:03.449Z,995.11
2018-07-25T11:15:13.599Z,995.1
2018-07-25T11:16:23.597Z,995.06
2018-07-25T11:17:34.656Z,995.1
2018-07-25T11:18:44.872Z,995.05
2018-07-25T11:19:55.628Z,995.11
2018-07-25T11:21:06.687Z,995.08
2018-07-25T11:22:18.604Z,995.13
2018-07-25T11:23:29.233Z,995.09
2018-07-25T11:24:40.648Z,995.16
2018-07-25T11:25:51.836Z,995.16
2018-07-25T11:27:02.509Z,995.1
2018-07-25T11:28:12.115Z,995.12
2018-07-25T11:29:22.427Z,995.13
2018-07-25T11:30:32.266Z,995.04
2018-07-25T11:31:42.331Z,995.03
2018-07-25T11:32:52.521Z,995.01
2018-07-25T11:34:03.010Z,995.04
2018-07-25T11:35:12.840Z,995.01
2018-07-25T11:36:22.718Z,995.02
2018-07-25T11:37:32.806Z,994.91
2018-07-25T11:38:42.901Z,994.86
2018-07-25T11:39:52.999Z,994.89
2018-07-25T11:41:03.085Z,994.89
2018-07-25T11:42:12.912Z,994.89
2018-07-25T11:43:23.016Z,995
2018-07-25T11:44:33.125Z,994.93
2018-07-25T11:45:43.213Z,994.93
2018-07-25T11:46:53.292Z,994.91
2018-07-25T11:48:03.419Z,994.93
2018-07-25T11:49:13.243Z,994.97
2018-07-25T11:50:23.379Z,995
2018-07-25T11:51:34.083Z,994.95
2018-07-25T11:52:44.164Z,994.93
2018-07-25T11:53:54.270Z,994.85
2018-07-25T11:55:04.120Z,994.96
2018-07-25T11:56:14.273Z,994.94
2018-07-25T11:57:24.364Z,994.94
2018-07-25T11:58:34.218Z,994.89
2018-07-25T11:59:44.109Z,994.81
2018-07-25T12:00:54.197Z,994.85
2018-07-25T12:02:04.400Z,994.82
2018-07-25T12:03:14.338Z,994.85
2018-07-25T12:04:24.166Z,994.81
2018-07-25T12:05:34.258Z,994.84
2018-07-25T12:06:44.462Z,994.86
2018-07-25T12:07:54.621Z,994.78
2018-07-25T12:09:04.807Z,994.8
2018-07-25T12:10:14.993Z,994.77
2018-07-25T12:11:26.169Z,994.75
2018-07-25T12:12:36.085Z,994.79
2018-07-25T12:13:46.239Z,994.79
2018-07-25T12:14:56.409Z,994.84
2018-07-25T12:16:06.593Z,994.79
2018-07-25T12:17:16.464Z,994.87
2018-07-25T12:18:26.594Z,994.89
2018-07-25T12:19:36.450Z,994.84
2018-07-25T12:20:46.330Z,994.83
2018-07-25T12:21:56.978Z,994.84
2018-07-25T12:23:07.747Z,994.8
2018-07-25T12:24:19.038Z,994.82
2018-07-25T12:25:30.738Z,994.78
2018-07-25T12:26:42.114Z,994.77
2018-07-25T12:27:53.918Z,994.76
2018-07-25T12:29:05.458Z,994.75
2018-07-25T12:30:16.319Z,994.67
2018-07-25T12:31:26.882Z,994.66
2018-07-25T12:32:38.016Z,994.75
2018-07-25T12:33:48.433Z,994.7
2018-07-25T12:34:58.975Z,994.67
2018-07-25T12:36:09.203Z,994.6
2018-07-25T12:37:19.374Z,994.6
2018-07-25T12:38:29.511Z,994.62
2018-07-25T12:39:39.423Z,994.63
2018-07-25T12:40:49.649Z,994.64
2018-07-25T12:41:59.749Z,994.65
2018-07-25T12:43:09.937Z,994.6
2018-07-25T12:44:20.140Z,994.61
2018-07-25T12:45:30.282Z,994.52
2018-07-25T12:46:40.462Z,994.58
2018-07-25T12:47:50.347Z,994.58
2018-07-25T12:49:00.247Z,994.61
2018-07-25T12:50:10.442Z,994.59
2018-07-25T12:51:20.365Z,994.56
2018-07-25T12:52:30.576Z,994.49
2018-07-25T12:53:40.769Z,994.49
2018-07-25T12:54:51.093Z,994.48
2018-07-25T12:56:01.281Z,994.48
2018-07-25T12:57:11.487Z,994.48
2018-07-25T12:58:21.679Z,994.53
2018-07-25T12:59:31.897Z,994.54
2018-07-25T13:00:42.120Z,994.51
2018-07-25T13:01:52.038Z,994.49
2018-07-25T13:03:02.283Z,994.4
2018-07-25T13:04:12.451Z,994.38
2018-07-25T13:05:22.384Z,994.42
2018-07-25T13:06:32.284Z,994.42
2018-07-25T13:07:42.492Z,994.33
2018-07-25T13:08:52.686Z,994.36
2018-07-25T13:10:02.954Z,994.35
2018-07-25T13:11:13.134Z,994.34
2018-07-25T13:12:23.338Z,994.27
2018-07-25T13:13:33.526Z,994.29
2018-07-25T13:14:43.701Z,994.19
2018-07-25T13:15:54.043Z,994.23
2018-07-25T13:17:04.716Z,994.12
2018-07-25T13:18:14.920Z,994.22
2018-07-25T13:19:24.840Z,994.12
2018-07-25T13:20:34.993Z,994.25
2018-07-25T13:21:45.184Z,994.23
2018-07-25T13:22:55.397Z,994.19
2018-07-25T13:24:05.960Z,994.25
2018-07-25T13:25:15.820Z,994.27
2018-07-25T13:26:26.001Z,994.19
2018-07-25T13:27:35.665Z,994.23
2018-07-25T13:28:45.886Z,994.24
2018-07-25T13:29:55.822Z,994.17
2018-07-25T13:31:05.972Z,994.16
2018-07-25T13:32:15.918Z,994.18
2018-07-25T13:33:25.834Z,994.19
2018-07-25T13:34:35.761Z,994.2
2018-07-25T13:35:45.955Z,994.17
2018-07-25T13:36:56.287Z,994.24
2018-07-25T13:38:07.033Z,994.26
2018-07-25T13:39:16.929Z,994.25
2018-07-25T13:40:27.112Z,994.22
2018-07-25T13:41:37.012Z,994.22
2018-07-25T13:42:47.228Z,994.14
2018-07-25T13:43:57.442Z,994.11
2018-07-25T13:45:07.642Z,994.13
2018-07-25T13:46:17.726Z,994.15
2018-07-25T13:47:28.098Z,994.14
2018-07-25T13:48:38.313Z,994.11
2018-07-25T13:49:48.503Z,994.07
2018-07-25T13:50:58.709Z,994.09
2018-07-25T13:52:08.930Z,994.1
2018-07-25T13:53:19.228Z,994.05
2018-07-25T13:54:29.992Z,994.1
2018-07-25T13:55:40.646Z,994.08
2018-07-25T13:56:51.707Z,994.12
2018-07-25T13:58:02.641Z,994.11
2018-07-25T13:59:14.107Z,994.01
2018-07-25T14:00:24.982Z,994.01
2018-07-25T14:01:36.530Z,994.02
2018-07-25T14:02:47.213Z,993.98
2018-07-25T14:03:58.042Z,993.94
2018-07-25T14:05:08.829Z,993.94
2018-07-25T14:06:19.680Z,993.97
2018-07-25T14:07:29.588Z,993.95
2018-07-25T14:08:40.773Z,993.97
2018-07-25T14:09:50.673Z,993.99
2018-07-25T14:11:00.884Z,993.98
2018-07-25T14:12:11.149Z,993.99
2018-07-25T14:13:21.625Z,993.98
2018-07-25T14:14:31.592Z,994.02
2018-07-25T14:15:41.809Z,993.94
2018-07-25T14:16:51.402Z,993.98
2018-07-25T14:18:01.352Z,993.9
2018-07-25T14:19:12.061Z,993.99
2018-07-25T14:20:22.286Z,994.06
2018-07-25T14:21:32.202Z,993.95
2018-07-25T14:22:42.359Z,993.93
2018-07-25T14:23:52.778Z,993.86
2018-07-25T14:25:04.681Z,993.9
2018-07-25T14:26:14.580Z,993.85
2018-07-25T14:27:24.758Z,993.89
2018-07-25T14:28:35.013Z,993.88
2018-07-25T14:29:45.749Z,993.8
2018-07-25T14:30:55.944Z,993.84
2018-07-25T14:32:06.155Z,993.83
2018-07-25T14:33:16.400Z,993.78
2018-07-25T14:34:26.619Z,993.75
2018-07-25T14:35:36.830Z,993.73
2018-07-25T14:36:47.021Z,993.76
2018-07-25T14:37:57.236Z,993.77
2018-07-25T14:39:07.413Z,993.72
2018-07-25T14:40:17.492Z,993.73
2018-07-25T14:41:28.870Z,993.74
2018-07-25T14:42:39.055Z,993.7
2018-07-25T14:43:48.956Z,993.7
2018-07-25T14:44:59.119Z,993.67
2018-07-25T14:46:09.294Z,993.69
2018-07-25T14:47:19.090Z,993.66
2018-07-25T14:48:29.412Z,993.73
2018-07-25T14:49:39.370Z,993.73
2018-07-25T14:50:49.563Z,993.69
2018-07-25T14:51:59.797Z,993.64
2018-07-25T14:53:09.984Z,993.58
2018-07-25T14:54:19.918Z,993.57
2018-07-25T14:55:29.776Z,993.59
2018-07-25T14:56:39.981Z,993.62
2018-07-25T14:57:50.285Z,993.7
2018-07-25T14:59:00.465Z,993.69
2018-07-25T15:00:10.679Z,993.68
2018-07-25T15:01:20.696Z,993.66
2018-07-25T15:02:31.244Z,993.74
2018-07-25T15:03:41.501Z,993.78
2018-07-25T15:04:51.151Z,993.79
2018-07-25T15:06:01.071Z,993.82
2018-07-25T15:07:11.016Z,993.86
2018-07-25T15:08:20.625Z,993.79
2018-07-25T15:09:30.835Z,993.78